createdAt,value
2022-11-08T00:00:14.772Z,0.70
2022-11-08T00:02:43.039Z,0.80
2022-11-08T00:05:29.977Z,0.80
2022-11-08T00:08:15.585Z,0.90
2022-11-08T00:11:01.341Z,0.90
2022-11-08T00:13:47.024Z,0.90
2022-11-08T00:16:15.243Z,1.00
2022-11-08T00:18:43.265Z,1.00
2022-11-08T00:21:12.860Z,1.10
2022-11-08T00:23:44.309Z,1.10
2022-11-08T00:26:12.454Z,1.10
2022-11-08T00:28:40.554Z,1.00
2022-11-08T00:31:08.962Z,1.00
2022-11-08T00:33:37.444Z,0.90
2022-11-08T00:36:06.102Z,0.90
2022-11-08T00:38:35.481Z,0.80
2022-11-08T00:41:03.573Z,0.70
2022-11-08T00:43:31.592Z,0.60
2022-11-08T00:45:59.580Z,0.60
2022-11-08T00:48:27.689Z,0.80
2022-11-08T00:50:55.622Z,0.80
2022-11-08T00:53:23.607Z,0.70
2022-11-08T00:55:59.911Z,0.70
2022-11-08T00:58:28.656Z,0.60
2022-11-08T01:00:57.448Z,0.50
2022-11-08T01:03:26.131Z,0.60
2022-11-08T01:05:55.662Z,0.50
2022-11-08T01:08:24.713Z,0.50
2022-11-08T01:10:54.123Z,0.30
2022-11-08T01:13:22.381Z,0.40
2022-11-08T01:15:50.552Z,0.30
2022-11-08T01:18:19.657Z,0.30
2022-11-08T01:20:50.343Z,0.10
2022-11-08T01:23:19.366Z,0.20
2022-11-08T01:25:48.647Z,0.10
2022-11-08T01:28:18.946Z,-0.10
2022-11-08T01:30:47.496Z,-0.30
2022-11-08T01:33:16.270Z,-0.10
2022-11-08T01:35:46.862Z,0.00
2022-11-08T01:38:15.343Z,0.20
2022-11-08T01:40:45.721Z,0.20
2022-11-08T01:43:35.929Z,0.20
2022-11-08T01:46:32.465Z,0.30
2022-11-08T01:49:19.789Z,0.30
2022-11-08T01:51:52.444Z,0.30
2022-11-08T01:54:24.562Z,0.20
2022-11-08T01:56:52.776Z,0.10
2022-11-08T01:59:22.514Z,0.30
2022-11-08T02:01:50.972Z,0.30
2022-11-08T02:04:19.383Z,0.40
2022-11-08T02:06:47.544Z,0.30
2022-11-08T02:09:17.706Z,0.20
2022-11-08T02:11:47.353Z,0.30
2022-11-08T02:14:15.735Z,0.20
2022-11-08T02:16:45.211Z,0.20
2022-11-08T02:19:21.038Z,0.20
2022-11-08T02:21:54.482Z,0.20
2022-11-08T02:24:24.408Z,0.10
2022-11-08T02:26:54.259Z,0.20
2022-11-08T02:29:28.847Z,0.30
2022-11-08T02:31:57.981Z,0.10
2022-11-08T02:34:29.101Z,0.20
2022-11-08T02:36:57.341Z,0.10
2022-11-08T02:39:26.938Z,0.10
2022-11-08T02:41:55.222Z,0.10
2022-11-08T02:44:23.236Z,0.10
2022-11-08T02:46:51.371Z,0.10
2022-11-08T02:49:19.553Z,0.30
2022-11-08T02:51:47.595Z,0.30
2022-11-08T02:54:16.175Z,0.30
2022-11-08T02:56:45.510Z,0.30
2022-11-08T02:59:13.614Z,0.20
2022-11-08T03:01:41.730Z,0.20
2022-11-08T03:04:10.138Z,-0.10
2022-11-08T03:06:38.181Z,0.00
2022-11-08T03:09:06.941Z,0.00
2022-11-08T03:11:34.922Z,0.10
2022-11-08T03:14:04.362Z,0.30
2022-11-08T03:16:32.753Z,0.30
2022-11-08T03:19:00.755Z,0.40
2022-11-08T03:21:28.751Z,0.20
2022-11-08T03:23:56.927Z,0.00
2022-11-08T03:26:24.914Z,0.10
2022-11-08T03:28:52.817Z,0.30
2022-11-08T03:31:22.149Z,0.40
2022-11-08T03:33:50.398Z,0.10
2022-11-08T03:36:18.382Z,0.20
2022-11-08T03:38:46.302Z,0.20
2022-11-08T03:41:14.283Z,0.30
2022-11-08T03:43:42.650Z,0.40
2022-11-08T03:46:10.670Z,0.30
2022-11-08T03:48:40.026Z,0.20
2022-11-08T03:51:08.093Z,0.00
2022-11-08T03:53:36.054Z,-0.10
2022-11-08T03:56:04.072Z,-0.10
2022-11-08T03:58:32.046Z,-0.10
2022-11-08T04:01:03.795Z,0.00
2022-11-08T04:03:31.777Z,-0.20
2022-11-08T04:06:02.486Z,-0.20
2022-11-08T04:08:31.965Z,-0.20
2022-11-08T04:11:20.486Z,-0.30
2022-11-08T04:14:06.314Z,-0.40
2022-11-08T04:16:34.892Z,-0.40
2022-11-08T04:19:20.889Z,-0.40
2022-11-08T04:21:52.227Z,-0.50
2022-11-08T04:24:20.260Z,-0.50
2022-11-08T04:26:48.323Z,-0.50
2022-11-08T04:29:16.347Z,-0.60
2022-11-08T04:31:44.389Z,-0.60
2022-11-08T04:34:12.903Z,-0.70
2022-11-08T04:36:40.891Z,-0.60
2022-11-08T04:39:10.470Z,-0.70
2022-11-08T04:41:38.902Z,-0.70
2022-11-08T04:44:06.858Z,-0.60
2022-11-08T04:46:35.365Z,-0.50
2022-11-08T04:49:03.722Z,-0.60
2022-11-08T04:51:33.812Z,-0.60
2022-11-08T04:54:03.142Z,-0.50
2022-11-08T04:56:32.701Z,-0.50
2022-11-08T04:59:01.751Z,-0.40
2022-11-08T05:01:31.831Z,-0.40
2022-11-08T05:04:00.034Z,-0.60
2022-11-08T05:06:29.477Z,-0.50
2022-11-08T05:08:59.150Z,-0.50
2022-11-08T05:11:29.248Z,-0.40
2022-11-08T05:13:59.484Z,-0.50
2022-11-08T05:16:29.982Z,-0.30
2022-11-08T05:18:58.291Z,-0.40
2022-11-08T05:21:44.331Z,-0.50
2022-11-08T05:24:14.161Z,-0.30
2022-11-08T05:26:49.253Z,-0.30
2022-11-08T05:29:18.702Z,-0.40
2022-11-08T05:31:46.736Z,-0.60
2022-11-08T05:34:14.721Z,-0.60
2022-11-08T05:36:42.720Z,-0.50
2022-11-08T05:39:11.023Z,-0.40
2022-11-08T05:41:39.020Z,-0.30
2022-11-08T05:44:07.130Z,-0.40
2022-11-08T05:46:36.453Z,-0.40
2022-11-08T05:49:04.445Z,-0.30
2022-11-08T05:51:33.436Z,-0.30
2022-11-08T05:54:01.374Z,-0.30
2022-11-08T05:56:29.426Z,-0.10
2022-11-08T05:58:57.540Z,-0.10
2022-11-08T06:01:25.575Z,-0.20
2022-11-08T06:03:55.008Z,-0.30
2022-11-08T06:06:23.621Z,-0.50
2022-11-08T06:08:53.487Z,-0.50
2022-11-08T06:11:24.766Z,-0.70
2022-11-08T06:13:53.569Z,-0.40
2022-11-08T06:16:23.060Z,-0.50
2022-11-08T06:18:51.364Z,-0.40
2022-11-08T06:21:22.007Z,-0.20
2022-11-08T06:23:52.446Z,-0.20
2022-11-08T06:26:20.899Z,-0.40
2022-11-08T06:28:48.850Z,-0.50
2022-11-08T06:31:20.541Z,-0.40
2022-11-08T06:33:48.979Z,-0.30
2022-11-08T06:36:17.158Z,-0.40
2022-11-08T06:38:46.658Z,-0.40
2022-11-08T06:41:19.750Z,-0.20
2022-11-08T06:43:48.871Z,-0.10
2022-11-08T06:46:17.048Z,0.10
2022-11-08T06:48:45.125Z,-0.10
2022-11-08T06:51:13.189Z,-0.10
2022-11-08T06:53:41.503Z,-0.10
2022-11-08T06:56:11.176Z,0.10
2022-11-08T06:58:39.437Z,0.10
2022-11-08T07:01:09.559Z,-0.20
2022-11-08T07:03:37.639Z,-0.20
2022-11-08T07:06:07.305Z,-0.10
2022-11-08T07:08:36.491Z,-0.10
2022-11-08T07:11:04.703Z,0.20
2022-11-08T07:13:34.141Z,0.10
2022-11-08T07:16:02.664Z,0.20
2022-11-08T07:18:30.800Z,0.30
2022-11-08T07:21:03.050Z,0.30
2022-11-08T07:23:31.724Z,0.70
2022-11-08T07:26:02.826Z,0.60
2022-11-08T07:28:31.194Z,0.60
2022-11-08T07:31:03.766Z,0.70
2022-11-08T07:33:32.065Z,0.70
2022-11-08T07:36:00.200Z,0.90
2022-11-08T07:38:28.240Z,1.00
2022-11-08T07:41:00.027Z,1.00
2022-11-08T07:43:29.399Z,0.90
2022-11-08T07:45:59.276Z,0.90
2022-11-08T07:48:30.712Z,1.00
2022-11-08T07:50:58.888Z,1.20
2022-11-08T07:53:27.134Z,1.00
2022-11-08T07:55:55.345Z,1.00
2022-11-08T07:58:23.411Z,1.00
2022-11-08T08:00:51.723Z,1.10
2022-11-08T08:03:20.661Z,1.20
2022-11-08T08:05:58.213Z,1.30
2022-11-08T08:08:29.205Z,1.50
2022-11-08T08:10:59.134Z,1.70
2022-11-08T08:13:27.141Z,1.60
2022-11-08T08:15:58.049Z,1.60
2022-11-08T08:18:26.478Z,1.80
2022-11-08T08:20:56.021Z,2.00
2022-11-08T08:23:24.207Z,2.50
2022-11-08T08:25:52.815Z,2.50
2022-11-08T08:28:20.960Z,2.70
2022-11-08T08:30:49.067Z,2.60
2022-11-08T08:33:33.972Z,2.80
2022-11-08T08:36:03.935Z,2.90
2022-11-08T08:38:32.978Z,3.10
2022-11-08T08:41:01.543Z,3.40
2022-11-08T08:43:32.279Z,3.40
2022-11-08T08:46:01.052Z,3.60
2022-11-08T08:48:29.621Z,3.70
2022-11-08T08:50:57.835Z,3.90
2022-11-08T08:53:27.965Z,3.90
2022-11-08T08:55:56.101Z,4.20
2022-11-08T08:58:24.103Z,4.20
2022-11-08T09:03:40.302Z,4.20
2022-11-08T09:06:08.686Z,4.60
2022-11-08T09:08:38.259Z,5.00
2022-11-08T09:11:06.470Z,5.50
2022-11-08T09:13:34.481Z,5.90
2022-11-08T09:16:03.617Z,5.90
2022-11-08T09:18:32.480Z,6.10
2022-11-08T09:21:01.426Z,6.30
2022-11-08T09:23:29.436Z,6.30
2022-11-08T09:25:59.895Z,6.70
2022-11-08T09:28:31.255Z,7.00
2022-11-08T09:31:04.924Z,7.50
2022-11-08T09:33:33.400Z,7.80
2022-11-08T09:36:02.293Z,8.00
2022-11-08T09:38:30.824Z,8.40
2022-11-08T09:41:23.084Z,8.60
2022-11-08T09:44:08.331Z,8.10
2022-11-08T09:46:40.558Z,8.00
2022-11-08T09:49:14.742Z,8.00
2022-11-08T09:51:43.362Z,8.20
2022-11-08T09:54:19.738Z,8.20
2022-11-08T09:56:51.434Z,7.90
2022-11-08T09:59:29.714Z,7.60
2022-11-08T10:01:57.869Z,7.50
2022-11-08T10:04:29.461Z,7.60
2022-11-08T10:07:06.013Z,7.70
2022-11-08T10:09:49.769Z,7.80
2022-11-08T10:12:26.558Z,7.90
2022-11-08T10:15:12.469Z,8.00
2022-11-08T10:18:08.417Z,8.00
2022-11-08T10:20:45.500Z,8.00
2022-11-08T10:23:22.622Z,7.80
2022-11-08T10:25:56.975Z,7.70
2022-11-08T10:28:33.853Z,7.70
2022-11-08T10:31:02.818Z,7.60
2022-11-08T10:33:33.706Z,7.40
2022-11-08T10:36:07.914Z,7.30
2022-11-08T10:38:41.006Z,7.10
2022-11-08T10:41:16.858Z,7.10
2022-11-08T10:43:50.876Z,6.80
2022-11-08T10:46:36.001Z,6.60
2022-11-08T10:49:16.848Z,6.50
2022-11-08T10:51:46.657Z,6.70
2022-11-08T10:54:48.561Z,6.80
2022-11-08T10:57:23.658Z,6.80
2022-11-08T10:59:53.711Z,6.80
2022-11-08T11:02:25.817Z,6.80
2022-11-08T11:04:56.024Z,6.80
2022-11-08T11:07:30.810Z,6.80
2022-11-08T11:09:59.567Z,6.90
2022-11-08T11:12:27.603Z,7.10
2022-11-08T11:15:00.179Z,7.20
2022-11-08T11:17:35.606Z,7.10
2022-11-08T11:20:19.390Z,7.20
2022-11-08T11:22:48.126Z,7.20
2022-11-08T11:25:19.017Z,7.20
2022-11-08T11:27:54.625Z,7.10
2022-11-08T11:30:28.199Z,7.20
2022-11-08T11:33:07.632Z,7.40
2022-11-08T11:35:42.415Z,7.50
2022-11-08T11:38:19.657Z,8.00
2022-11-08T11:40:49.550Z,8.10
2022-11-08T11:43:25.436Z,8.30
2022-11-08T11:46:01.716Z,8.40
2022-11-08T11:48:31.737Z,8.50
2022-11-08T11:51:00.400Z,8.40
2022-11-08T11:53:32.846Z,8.20
2022-11-08T11:56:30.642Z,7.80
2022-11-08T11:59:31.338Z,7.70
2022-11-08T12:02:25.361Z,7.40
2022-11-08T12:05:20.898Z,7.10
2022-11-08T12:07:59.087Z,6.90
2022-11-08T12:10:40.889Z,7.10
2022-11-08T12:13:17.160Z,7.20
2022-11-08T12:15:53.172Z,7.30
2022-11-08T12:18:46.168Z,7.10
2022-11-08T12:21:16.171Z,7.20
2022-11-08T12:24:08.019Z,7.20
2022-11-08T12:26:42.387Z,7.10
2022-11-08T12:29:25.777Z,6.80
2022-11-08T12:32:11.057Z,6.90
2022-11-08T12:34:49.619Z,6.90
2022-11-08T12:37:28.922Z,6.60
2022-11-08T12:40:01.756Z,6.50
2022-11-08T12:42:53.284Z,6.40
2022-11-08T12:45:50.488Z,6.50
2022-11-08T12:48:30.114Z,6.60
2022-11-08T12:51:10.700Z,6.80
2022-11-08T12:53:52.130Z,6.90
2022-11-08T12:56:23.185Z,6.90
2022-11-08T12:58:53.513Z,6.90
2022-11-08T13:01:23.502Z,6.90
2022-11-08T13:04:18.831Z,6.90
2022-11-08T13:06:56.549Z,6.80
2022-11-08T13:09:35.616Z,7.00
2022-11-08T13:12:12.128Z,7.00
2022-11-08T13:14:41.649Z,6.90
2022-11-08T13:17:19.042Z,6.90
2022-11-08T13:20:06.614Z,7.00
2022-11-08T13:23:01.678Z,7.10
2022-11-08T13:25:41.243Z,6.90
2022-11-08T13:28:39.087Z,6.50
2022-11-08T13:31:38.666Z,6.30
2022-11-08T13:34:43.153Z,6.10
2022-11-08T13:37:47.110Z,6.10
2022-11-08T13:40:28.354Z,6.00
2022-11-08T13:43:20.275Z,5.40
2022-11-08T13:45:48.927Z,5.40
2022-11-08T13:48:44.374Z,5.60
2022-11-08T13:51:31.748Z,5.80
2022-11-08T13:54:01.190Z,5.90
2022-11-08T13:56:52.476Z,5.70
2022-11-08T13:59:59.733Z,5.70
2022-11-08T14:02:41.197Z,5.60
2022-11-08T14:05:30.784Z,5.40
2022-11-08T14:08:17.530Z,5.40
2022-11-08T14:11:30.858Z,5.40
2022-11-08T14:14:16.642Z,5.40
2022-11-08T14:17:09.582Z,5.50
2022-11-08T14:19:40.591Z,5.60
2022-11-08T14:22:16.153Z,5.50
2022-11-08T14:24:44.798Z,5.70
2022-11-08T14:27:15.143Z,5.60
2022-11-08T14:29:44.711Z,5.70
2022-11-08T14:32:19.155Z,5.60
2022-11-08T14:34:49.986Z,5.50
2022-11-08T14:37:24.601Z,5.60
2022-11-08T14:39:53.255Z,5.40
2022-11-08T14:42:24.941Z,5.40
2022-11-08T14:44:57.208Z,5.10
2022-11-08T14:47:28.538Z,4.80
2022-11-08T14:49:56.861Z,4.80
2022-11-08T14:52:29.628Z,4.70
2022-11-08T14:55:05.613Z,4.60
2022-11-08T14:57:38.549Z,4.50
2022-11-08T15:00:17.310Z,4.50
2022-11-08T15:02:48.308Z,4.70
2022-11-08T15:05:33.759Z,4.60
2022-11-08T15:08:04.593Z,4.70
2022-11-08T15:10:32.949Z,4.60
2022-11-08T15:13:01.360Z,4.70
2022-11-08T15:15:33.443Z,4.60
2022-11-08T15:18:14.303Z,4.50
2022-11-08T15:20:57.515Z,4.60
2022-11-08T15:23:40.504Z,4.50
2022-11-08T15:26:20.663Z,4.40
2022-11-08T15:29:04.760Z,4.30
2022-11-08T15:31:45.867Z,4.30
2022-11-08T15:34:22.671Z,4.30
2022-11-08T15:36:51.347Z,4.40
2022-11-08T15:39:23.547Z,4.10
2022-11-08T15:42:03.068Z,4.10
2022-11-08T15:44:31.393Z,4.10
2022-11-08T15:47:00.775Z,4.00
2022-11-08T15:49:30.557Z,3.80
2022-11-08T15:51:59.636Z,3.70
2022-11-08T15:54:28.354Z,3.70
2022-11-08T15:56:57.792Z,3.70
2022-11-08T15:59:29.511Z,3.70
2022-11-08T16:02:02.608Z,3.50
2022-11-08T16:04:31.784Z,3.50
2022-11-08T16:06:59.873Z,3.50
2022-11-08T16:09:28.330Z,3.60
2022-11-08T16:11:59.462Z,3.60
2022-11-08T16:14:27.685Z,3.70
2022-11-08T16:16:56.014Z,3.70
2022-11-08T16:19:26.070Z,3.70
2022-11-08T16:21:54.282Z,3.60
2022-11-08T16:24:22.421Z,3.60
2022-11-08T16:26:52.406Z,3.80
2022-11-08T16:29:23.679Z,3.70
2022-11-08T16:31:52.667Z,3.60
2022-11-08T16:34:21.392Z,3.50
2022-11-08T16:36:52.020Z,3.60
2022-11-08T16:39:26.099Z,3.70
2022-11-08T16:41:54.288Z,3.70
2022-11-08T16:44:23.094Z,3.80
2022-11-08T16:46:53.764Z,3.80
2022-11-08T16:49:23.066Z,3.90
2022-11-08T16:51:52.386Z,3.90
2022-11-08T16:54:23.965Z,3.90
2022-11-08T16:57:03.338Z,3.70
2022-11-08T16:59:40.401Z,3.80
2022-11-08T17:02:20.268Z,3.70
2022-11-08T17:04:48.312Z,3.80
2022-11-08T17:07:17.883Z,3.90
2022-11-08T17:09:45.936Z,3.90
2022-11-08T17:12:13.997Z,3.90
2022-11-08T17:14:42.019Z,3.90
2022-11-08T17:17:12.114Z,4.00
2022-11-08T17:19:40.413Z,4.00
2022-11-08T17:22:08.811Z,4.00
2022-11-08T17:24:38.435Z,4.10
2022-11-08T17:27:06.563Z,4.10
2022-11-08T17:29:35.102Z,4.10
2022-11-08T17:32:05.765Z,3.80
2022-11-08T17:34:34.110Z,4.00
2022-11-08T17:37:02.147Z,4.10
2022-11-08T17:39:30.300Z,4.10
2022-11-08T17:42:00.046Z,4.10
2022-11-08T17:44:29.774Z,4.10
2022-11-08T17:46:57.882Z,4.00
2022-11-08T17:49:25.878Z,4.10
2022-11-08T17:51:53.831Z,4.10
2022-11-08T17:54:21.870Z,4.10
2022-11-08T17:56:50.057Z,4.10
2022-11-08T17:59:19.445Z,4.20
2022-11-08T18:01:47.511Z,4.10
2022-11-08T18:04:15.741Z,4.20
2022-11-08T18:06:44.414Z,4.30
2022-11-08T18:09:13.934Z,4.20
2022-11-08T18:11:47.551Z,4.10
2022-11-08T18:14:15.738Z,4.10
2022-11-08T18:16:45.294Z,4.20
2022-11-08T18:19:13.620Z,4.00
2022-11-08T18:21:44.390Z,4.20
2022-11-08T18:24:12.954Z,4.00
2022-11-08T18:26:41.461Z,4.10
2022-11-08T18:29:09.481Z,4.10
2022-11-08T18:31:38.485Z,4.30
2022-11-08T18:34:07.866Z,4.30
2022-11-08T18:36:36.226Z,4.40
2022-11-08T18:39:04.735Z,4.30
2022-11-08T18:41:34.085Z,4.20
2022-11-08T18:44:03.635Z,4.30
2022-11-08T18:46:40.242Z,4.40
2022-11-08T18:49:12.540Z,4.50
2022-11-08T18:51:40.570Z,4.60
2022-11-08T18:54:09.129Z,4.50
2022-11-08T18:56:37.378Z,4.50
2022-11-08T18:59:06.544Z,4.50
2022-11-08T19:01:34.567Z,4.50
2022-11-08T19:04:02.563Z,4.50
2022-11-08T19:06:32.008Z,4.40
2022-11-08T19:09:00.252Z,4.40
2022-11-08T19:11:30.537Z,4.40
2022-11-08T19:13:59.565Z,4.50
2022-11-08T19:16:27.742Z,4.40
2022-11-08T19:18:55.808Z,4.30
2022-11-08T19:21:26.815Z,4.50
2022-11-08T19:23:58.690Z,4.30
2022-11-08T19:26:28.911Z,4.50
2022-11-08T19:28:58.135Z,4.60
2022-11-08T19:31:27.256Z,4.60
2022-11-08T19:33:56.234Z,4.60
2022-11-08T19:36:25.748Z,4.40
2022-11-08T19:38:54.911Z,4.20
2022-11-08T19:41:25.816Z,4.30
2022-11-08T19:43:54.978Z,4.20
2022-11-08T19:46:26.008Z,4.30
2022-11-08T19:48:54.168Z,4.50
2022-11-08T19:51:23.606Z,4.50
2022-11-08T19:53:55.454Z,4.60
2022-11-08T19:56:43.401Z,4.60
2022-11-08T19:59:13.273Z,4.30
2022-11-08T20:01:41.502Z,4.20
2022-11-08T20:04:11.541Z,4.30
2022-11-08T20:06:40.187Z,4.40
2022-11-08T20:09:09.857Z,4.40
2022-11-08T20:11:41.501Z,4.50
2022-11-08T20:14:13.285Z,4.40
2022-11-08T20:16:45.013Z,4.50
2022-11-08T20:19:18.167Z,4.60
2022-11-08T20:21:47.492Z,4.50
2022-11-08T20:24:17.070Z,4.50
2022-11-08T20:26:46.703Z,4.60
2022-11-08T20:29:15.148Z,4.70
2022-11-08T20:31:43.234Z,4.50
2022-11-08T20:34:12.921Z,4.60
2022-11-08T20:36:41.837Z,4.70
2022-11-08T20:39:10.723Z,4.70
2022-11-08T20:41:41.015Z,4.70
2022-11-08T20:44:11.297Z,4.70
2022-11-08T20:46:39.857Z,4.70
2022-11-08T20:49:08.531Z,4.80
2022-11-08T20:51:36.530Z,4.80
2022-11-08T20:54:04.944Z,4.90
2022-11-08T20:56:36.777Z,5.00
2022-11-08T20:59:04.982Z,5.10
2022-11-08T21:01:35.809Z,5.10
2022-11-08T21:04:03.986Z,5.10
2022-11-08T21:06:36.081Z,5.10
2022-11-08T21:09:29.881Z,5.10
2022-11-08T21:11:53.306Z,5.20
2022-11-08T21:14:21.365Z,5.10
2022-11-08T21:19:39.205Z,4.90
2022-11-08T21:22:16.886Z,5.00
2022-11-08T21:24:46.182Z,5.00
2022-11-08T21:27:14.381Z,5.00
2022-11-08T21:29:43.457Z,5.00
2022-11-08T21:32:13.094Z,5.00
2022-11-08T21:34:45.815Z,5.10
2022-11-08T21:37:14.914Z,5.20
2022-11-08T21:39:43.040Z,5.20
2022-11-08T21:42:11.151Z,5.20
2022-11-08T21:44:39.306Z,5.20
2022-11-08T21:47:07.306Z,5.10
2022-11-08T21:49:36.760Z,5.20
2022-11-08T21:52:04.934Z,5.20
2022-11-08T21:54:32.871Z,5.20
2022-11-08T21:57:00.786Z,5.20
2022-11-08T21:59:28.727Z,5.20
2022-11-08T22:01:56.727Z,5.20
2022-11-08T22:04:24.841Z,5.30
2022-11-08T22:06:54.986Z,5.30
2022-11-08T22:09:23.028Z,5.30
2022-11-08T22:11:51.133Z,5.30
2022-11-08T22:14:19.146Z,5.30
2022-11-08T22:16:47.070Z,5.30
2022-11-08T22:19:15.379Z,5.30
2022-11-08T22:21:46.019Z,5.40
2022-11-08T22:24:18.038Z,5.40
2022-11-08T22:26:46.057Z,5.20
2022-11-08T22:29:14.014Z,5.20
2022-11-08T22:31:42.246Z,5.20
2022-11-08T22:34:10.856Z,5.10
2022-11-08T22:36:45.026Z,5.10
2022-11-08T22:39:16.217Z,5.10
2022-11-08T22:41:44.756Z,5.20
2022-11-08T22:44:13.599Z,5.20
2022-11-08T22:46:42.307Z,5.20
2022-11-08T22:49:10.880Z,5.20
2022-11-08T22:51:39.261Z,5.20
2022-11-08T22:54:07.708Z,5.20
2022-11-08T22:56:37.698Z,5.30
2022-11-08T22:59:05.897Z,5.30
2022-11-08T23:01:34.071Z,5.40
2022-11-08T23:04:02.263Z,5.30
2022-11-08T23:06:30.461Z,5.20
2022-11-08T23:08:58.931Z,5.20
2022-11-08T23:11:44.494Z,5.20
2022-11-08T23:14:36.713Z,5.20
2022-11-08T23:17:07.083Z,5.20
2022-11-08T23:19:52.954Z,5.10
2022-11-08T23:22:38.662Z,5.20
2022-11-08T23:25:07.742Z,5.20
2022-11-08T23:27:53.268Z,5.20
2022-11-08T23:30:40.048Z,5.20
2022-11-08T23:33:08.077Z,5.20
2022-11-08T23:35:36.064Z,5.20
2022-11-08T23:38:04.193Z,5.10
2022-11-08T23:40:50.054Z,5.00
2022-11-08T23:43:49.185Z,5.00
2022-11-08T23:46:18.734Z,5.10
2022-11-08T23:48:46.799Z,5.10
2022-11-08T23:51:14.748Z,5.10
2022-11-08T23:53:43.856Z,5.10
2022-11-08T23:56:14.286Z,5.20
2022-11-08T23:58:42.258Z,5.30
